sensor_id;sensor_type;location;lat;lon;timestamp;temperature;humidity
15906;DHT22;8051;50.820;4.884;2023-04-01T00:01:13;9.10;99.90
15906;DHT22;8051;50.820;4.884;2023-04-01T00:03:43;9.10;99.90
15906;DHT22;8051;50.820;4.884;2023-04-01T00:06:13;9.10;99.90
15906;DHT22;8051;50.820;4.884;2023-04-01T00:08:41;9.10;99.90
15906;DHT22;8051;50.820;4.884;2023-04-01T00:11:10;9.10;99.90
15906;DHT22;8051;50.820;4.884;2023-04-01T00:13:37;9.10;99.90
15906;DHT22;8051;50.820;4.884;2023-04-01T00:16:05;9.10;99.90
15906;DHT22;8051;50.820;4.884;2023-04-01T00:18:32;9.10;99.90
15906;DHT22;8051;50.820;4.884;2023-04-01T00:21:01;9.10;99.90
15906;DHT22;8051;50.820;4.884;2023-04-01T00:23:29;9.10;99.90
15906;DHT22;8051;50.820;4.884;2023-04-01T00:25:59;9.10;99.90
15906;DHT22;8051;50.820;4.884;2023-04-01T00:28:27;9.10;99.90
15906;DHT22;8051;50.820;4.884;2023-04-01T00:30:54;9.10;99.90
15906;DHT22;8051;50.820;4.884;2023-04-01T00:33:22;9.10;99.90
15906;DHT22;8051;50.820;4.884;2023-04-01T00:35:49;9.10;99.90
15906;DHT22;8051;50.820;4.884;2023-04-01T00:38:18;9.10;99.90
15906;DHT22;8051;50.820;4.884;2023-04-01T00:40:46;9.10;99.90
15906;DHT22;8051;50.820;4.884;2023-04-01T00:43:16;9.10;99.90
15906;DHT22;8051;50.820;4.884;2023-04-01T00:45:46;9.10;99.90
15906;DHT22;8051;50.820;4.884;2023-04-01T00:48:16;9.10;99.90
15906;DHT22;8051;50.820;4.884;2023-04-01T00:50:49;9.10;99.90
15906;DHT22;8051;50.820;4.884;2023-04-01T00:53:19;9.10;99.90
15906;DHT22;8051;50.820;4.884;2023-04-01T00:55:51;9.10;99.90
15906;DHT22;8051;50.820;4.884;2023-04-01T00:58:21;9.10;99.90
15906;DHT22;8051;50.820;4.884;2023-04-01T01:00:51;9.10;99.90
15906;DHT22;8051;50.820;4.884;2023-04-01T01:03:19;9.10;99.90
15906;DHT22;8051;50.820;4.884;2023-04-01T01:06:04;9.10;99.90
15906;DHT22;8051;50.820;4.884;2023-04-01T01:08:51;9.10;99.90
15906;DHT22;8051;50.820;4.884;2023-04-01T01:11:25;9.10;99.90
15906;DHT22;8051;50.820;4.884;2023-04-01T01:13:59;9.10;99.90
15906;DHT22;8051;50.820;4.884;2023-04-01T01:16:30;9.10;99.90
15906;DHT22;8051;50.820;4.884;2023-04-01T01:19:08;9.10;99.90
15906;DHT22;8051;50.820;4.884;2023-04-01T01:21:49;9.00;99.90
15906;DHT22;8051;50.820;4.884;2023-04-01T01:24:43;9.00;99.90
15906;DHT22;8051;50.820;4.884;2023-04-01T01:27:16;9.10;99.90
15906;DHT22;8051;50.820;4.884;2023-04-01T01:30:00;9.10;99.90
15906;DHT22;8051;50.820;4.884;2023-04-01T01:35:38;9.00;99.90
15906;DHT22;8051;50.820;4.884;2023-04-01T01:38:11;9.10;99.90
15906;DHT22;8051;50.820;4.884;2023-04-01T01:40:43;9.10;99.90
15906;DHT22;8051;50.820;4.884;2023-04-01T01:43:14;9.10;99.90
15906;DHT22;8051;50.820;4.884;2023-04-01T01:45:47;9.10;99.90
15906;DHT22;8051;50.820;4.884;2023-04-01T01:48:16;9.00;99.90
15906;DHT22;8051;50.820;4.884;2023-04-01T01:50:46;9.00;99.90
15906;DHT22;8051;50.820;4.884;2023-04-01T01:53:15;9.00;99.90
15906;DHT22;8051;50.820;4.884;2023-04-01T01:55:45;9.00;99.90
15906;DHT22;8051;50.820;4.884;2023-04-01T01:58:17;9.10;99.90
15906;DHT22;8051;50.820;4.884;2023-04-01T02:00:50;9.10;99.90
15906;DHT22;8051;50.820;4.884;2023-04-01T02:03:20;9.10;99.90
15906;DHT22;8051;50.820;4.884;2023-04-01T02:05:51;9.10;99.90
15906;DHT22;8051;50.820;4.884;2023-04-01T02:08:22;9.10;99.90
15906;DHT22;8051;50.820;4.884;2023-04-01T02:10:56;9.10;99.90
15906;DHT22;8051;50.820;4.884;2023-04-01T02:13:29;9.10;99.90
15906;DHT22;8051;50.820;4.884;2023-04-01T02:16:01;9.00;99.90
15906;DHT22;8051;50.820;4.884;2023-04-01T02:18:35;9.10;99.90
15906;DHT22;8051;50.820;4.884;2023-04-01T02:21:06;9.10;99.90
15906;DHT22;8051;50.820;4.884;2023-04-01T02:23:36;9.10;99.90
15906;DHT22;8051;50.820;4.884;2023-04-01T02:26:05;9.00;99.90
15906;DHT22;8051;50.820;4.884;2023-04-01T02:28:34;9.00;99.90
15906;DHT22;8051;50.820;4.884;2023-04-01T02:31:04;9.00;99.90
15906;DHT22;8051;50.820;4.884;2023-04-01T02:33:34;9.00;99.90
15906;DHT22;8051;50.820;4.884;2023-04-01T02:36:02;9.00;99.90
15906;DHT22;8051;50.820;4.884;2023-04-01T02:38:31;9.00;99.90
15906;DHT22;8051;50.820;4.884;2023-04-01T02:41:00;9.00;99.90
15906;DHT22;8051;50.820;4.884;2023-04-01T02:43:28;9.00;99.90
15906;DHT22;8051;50.820;4.884;2023-04-01T02:45:55;9.00;99.90
15906;DHT22;8051;50.820;4.884;2023-04-01T02:48:23;9.00;99.90
15906;DHT22;8051;50.820;4.884;2023-04-01T02:50:50;9.00;99.90
15906;DHT22;8051;50.820;4.884;2023-04-01T02:53:17;9.00;99.90
15906;DHT22;8051;50.820;4.884;2023-04-01T02:55:46;9.00;99.90
15906;DHT22;8051;50.820;4.884;2023-04-01T02:58:16;9.00;99.90
15906;DHT22;8051;50.820;4.884;2023-04-01T03:00:43;9.00;99.90
15906;DHT22;8051;50.820;4.884;2023-04-01T03:03:12;8.90;99.90
15906;DHT22;8051;50.820;4.884;2023-04-01T03:05:40;8.90;99.90
15906;DHT22;8051;50.820;4.884;2023-04-01T03:08:07;8.90;99.90
15906;DHT22;8051;50.820;4.884;2023-04-01T03:10:35;8.90;99.90
15906;DHT22;8051;50.820;4.884;2023-04-01T03:13:03;8.90;99.90
15906;DHT22;8051;50.820;4.884;2023-04-01T03:15:32;8.90;99.90
15906;DHT22;8051;50.820;4.884;2023-04-01T03:17:59;8.90;99.90
15906;DHT22;8051;50.820;4.884;2023-04-01T03:20:26;8.80;99.90
15906;DHT22;8051;50.820;4.884;2023-04-01T03:22:54;8.90;99.90
15906;DHT22;8051;50.820;4.884;2023-04-01T03:25:22;8.80;99.90
15906;DHT22;8051;50.820;4.884;2023-04-01T03:27:49;8.80;99.90
15906;DHT22;8051;50.820;4.884;2023-04-01T03:30:18;8.80;99.90
15906;DHT22;8051;50.820;4.884;2023-04-01T03:32:45;8.80;99.90
15906;DHT22;8051;50.820;4.884;2023-04-01T03:35:13;8.80;99.90
15906;DHT22;8051;50.820;4.884;2023-04-01T03:37:40;8.80;99.90
15906;DHT22;8051;50.820;4.884;2023-04-01T03:40:09;8.80;99.90
15906;DHT22;8051;50.820;4.884;2023-04-01T03:42:36;8.80;99.90
15906;DHT22;8051;50.820;4.884;2023-04-01T03:45:05;8.80;99.90
15906;DHT22;8051;50.820;4.884;2023-04-01T03:47:34;8.80;99.90
15906;DHT22;8051;50.820;4.884;2023-04-01T03:50:01;8.80;99.90
15906;DHT22;8051;50.820;4.884;2023-04-01T03:52:29;8.80;99.90
15906;DHT22;8051;50.820;4.884;2023-04-01T03:54:57;8.80;99.90
15906;DHT22;8051;50.820;4.884;2023-04-01T03:57:24;8.80;99.90
15906;DHT22;8051;50.820;4.884;2023-04-01T03:59:52;8.80;99.90
15906;DHT22;8051;50.820;4.884;2023-04-01T04:02:19;8.80;99.90
15906;DHT22;8051;50.820;4.884;2023-04-01T04:04:48;8.80;99.90
15906;DHT22;8051;50.820;4.884;2023-04-01T04:07:16;8.80;99.90
15906;DHT22;8051;50.820;4.884;2023-04-01T04:09:43;8.80;99.90
15906;DHT22;8051;50.820;4.884;2023-04-01T04:12:10;8.80;99.90
15906;DHT22;8051;50.820;4.884;2023-04-01T04:14:38;8.80;99.90
15906;DHT22;8051;50.820;4.884;2023-04-01T04:17:05;8.80;99.90
15906;DHT22;8051;50.820;4.884;2023-04-01T04:19:34;8.80;99.90
15906;DHT22;8051;50.820;4.884;2023-04-01T04:22:02;8.70;99.90
15906;DHT22;8051;50.820;4.884;2023-04-01T04:24:30;8.80;99.90
15906;DHT22;8051;50.820;4.884;2023-04-01T04:26:57;8.80;99.90
15906;DHT22;8051;50.820;4.884;2023-04-01T04:29:25;8.80;99.90
15906;DHT22;8051;50.820;4.884;2023-04-01T04:31:52;8.80;99.90
15906;DHT22;8051;50.820;4.884;2023-04-01T04:34:21;8.80;99.90
15906;DHT22;8051;50.820;4.884;2023-04-01T04:36:48;8.90;99.90
15906;DHT22;8051;50.820;4.884;2023-04-01T04:39:17;8.90;99.90
15906;DHT22;8051;50.820;4.884;2023-04-01T04:41:45;8.90;99.90
15906;DHT22;8051;50.820;4.884;2023-04-01T04:44:12;8.90;99.90
15906;DHT22;8051;50.820;4.884;2023-04-01T04:46:40;8.80;99.90
15906;DHT22;8051;50.820;4.884;2023-04-01T04:49:07;8.80;99.90
15906;DHT22;8051;50.820;4.884;2023-04-01T04:51:35;8.80;99.90
15906;DHT22;8051;50.820;4.884;2023-04-01T04:54:03;8.80;99.90
15906;DHT22;8051;50.820;4.884;2023-04-01T04:56:33;8.70;99.90
15906;DHT22;8051;50.820;4.884;2023-04-01T04:59:01;8.70;99.90
15906;DHT22;8051;50.820;4.884;2023-04-01T05:01:29;8.70;99.90
15906;DHT22;8051;50.820;4.884;2023-04-01T05:03:57;8.70;99.90
15906;DHT22;8051;50.820;4.884;2023-04-01T05:06:24;8.70;99.90
15906;DHT22;8051;50.820;4.884;2023-04-01T05:08:55;8.70;99.90
15906;DHT22;8051;50.820;4.884;2023-04-01T05:11:23;8.70;99.90
15906;DHT22;8051;50.820;4.884;2023-04-01T05:13:53;8.70;99.90
15906;DHT22;8051;50.820;4.884;2023-04-01T05:16:21;8.70;99.90
15906;DHT22;8051;50.820;4.884;2023-04-01T05:18:48;8.70;99.90
15906;DHT22;8051;50.820;4.884;2023-04-01T05:21:16;8.70;99.90
15906;DHT22;8051;50.820;4.884;2023-04-01T05:23:44;8.70;99.90
15906;DHT22;8051;50.820;4.884;2023-04-01T05:26:13;8.70;99.90
15906;DHT22;8051;50.820;4.884;2023-04-01T05:28:41;8.70;99.90
15906;DHT22;8051;50.820;4.884;2023-04-01T05:31:10;8.70;99.90
15906;DHT22;8051;50.820;4.884;2023-04-01T05:33:38;8.70;99.90
15906;DHT22;8051;50.820;4.884;2023-04-01T05:36:09;8.70;99.90
15906;DHT22;8051;50.820;4.884;2023-04-01T05:38:37;8.70;99.90
15906;DHT22;8051;50.820;4.884;2023-04-01T05:41:04;8.70;99.90
15906;DHT22;8051;50.820;4.884;2023-04-01T05:43:35;8.70;99.90
15906;DHT22;8051;50.820;4.884;2023-04-01T05:46:02;8.70;99.90
15906;DHT22;8051;50.820;4.884;2023-04-01T05:48:32;8.70;99.90
15906;DHT22;8051;50.820;4.884;2023-04-01T05:51:00;8.70;99.90
15906;DHT22;8051;50.820;4.884;2023-04-01T05:53:28;8.70;99.90
15906;DHT22;8051;50.820;4.884;2023-04-01T05:55:55;8.80;99.90
15906;DHT22;8051;50.820;4.884;2023-04-01T05:58:23;8.80;99.90
15906;DHT22;8051;50.820;4.884;2023-04-01T06:00:50;8.70;99.90
15906;DHT22;8051;50.820;4.884;2023-04-01T06:03:18;8.80;99.90
15906;DHT22;8051;50.820;4.884;2023-04-01T06:05:47;8.70;99.90
15906;DHT22;8051;50.820;4.884;2023-04-01T06:08:17;8.80;99.90
15906;DHT22;8051;50.820;4.884;2023-04-01T06:10:56;8.80;99.90
15906;DHT22;8051;50.820;4.884;2023-04-01T06:13:41;8.80;99.90
15906;DHT22;8051;50.820;4.884;2023-04-01T06:16:17;8.70;99.90
15906;DHT22;8051;50.820;4.884;2023-04-01T06:19:03;8.70;99.90
15906;DHT22;8051;50.820;4.884;2023-04-01T06:22:11;8.80;99.90
15906;DHT22;8051;50.820;4.884;2023-04-01T06:25:07;8.80;99.90
15906;DHT22;8051;50.820;4.884;2023-04-01T06:27:55;8.80;99.90
15906;DHT22;8051;50.820;4.884;2023-04-01T06:30:35;8.80;99.90
15906;DHT22;8051;50.820;4.884;2023-04-01T06:33:25;8.80;99.90
15906;DHT22;8051;50.820;4.884;2023-04-01T06:36:19;8.90;99.90
15906;DHT22;8051;50.820;4.884;2023-04-01T06:39:17;8.80;99.90
15906;DHT22;8051;50.820;4.884;2023-04-01T06:42:15;8.80;99.90
15906;DHT22;8051;50.820;4.884;2023-04-01T06:44:52;8.80;99.90
15906;DHT22;8051;50.820;4.884;2023-04-01T06:47:34;8.80;99.90
15906;DHT22;8051;50.820;4.884;2023-04-01T06:50:07;8.80;99.90
15906;DHT22;8051;50.820;4.884;2023-04-01T06:52:47;8.80;99.90
15906;DHT22;8051;50.820;4.884;2023-04-01T06:55:26;8.80;99.90
15906;DHT22;8051;50.820;4.884;2023-04-01T06:57:57;8.80;99.90
15906;DHT22;8051;50.820;4.884;2023-04-01T07:00:30;8.80;99.90
15906;DHT22;8051;50.820;4.884;2023-04-01T07:03:05;8.80;99.90
15906;DHT22;8051;50.820;4.884;2023-04-01T07:05:34;8.80;99.90
15906;DHT22;8051;50.820;4.884;2023-04-01T07:08:04;8.80;99.90
15906;DHT22;8051;50.820;4.884;2023-04-01T07:10:43;8.80;99.90
15906;DHT22;8051;50.820;4.884;2023-04-01T07:13:17;8.80;99.90
15906;DHT22;8051;50.820;4.884;2023-04-01T07:16:01;8.80;99.90
15906;DHT22;8051;50.820;4.884;2023-04-01T07:18:34;8.80;99.90
15906;DHT22;8051;50.820;4.884;2023-04-01T07:21:05;8.80;99.90
15906;DHT22;8051;50.820;4.884;2023-04-01T07:23:40;8.80;99.90
15906;DHT22;8051;50.820;4.884;2023-04-01T07:26:17;8.80;99.90
15906;DHT22;8051;50.820;4.884;2023-04-01T07:28:45;8.80;99.90
15906;DHT22;8051;50.820;4.884;2023-04-01T07:31:20;8.80;99.90
15906;DHT22;8051;50.820;4.884;2023-04-01T07:33:59;8.80;99.90
15906;DHT22;8051;50.820;4.884;2023-04-01T07:36:35;8.80;99.90
15906;DHT22;8051;50.820;4.884;2023-04-01T07:39:12;8.80;99.90
15906;DHT22;8051;50.820;4.884;2023-04-01T07:41:51;8.80;99.90
15906;DHT22;8051;50.820;4.884;2023-04-01T07:44:28;8.80;99.90
15906;DHT22;8051;50.820;4.884;2023-04-01T07:47:14;8.80;99.90
15906;DHT22;8051;50.820;4.884;2023-04-01T07:49:53;8.80;99.90
15906;DHT22;8051;50.820;4.884;2023-04-01T07:52:29;8.80;99.90
15906;DHT22;8051;50.820;4.884;2023-04-01T07:55:04;8.80;99.90
15906;DHT22;8051;50.820;4.884;2023-04-01T07:57:39;8.80;99.90
15906;DHT22;8051;50.820;4.884;2023-04-01T08:00:12;8.90;99.90
15906;DHT22;8051;50.820;4.884;2023-04-01T08:02:53;8.90;99.90
15906;DHT22;8051;50.820;4.884;2023-04-01T08:05:26;8.90;99.90
15906;DHT22;8051;50.820;4.884;2023-04-01T08:08:01;9.00;99.90
15906;DHT22;8051;50.820;4.884;2023-04-01T08:10:39;9.10;99.90
15906;DHT22;8051;50.820;4.884;2023-04-01T08:13:16;9.10;99.90
15906;DHT22;8051;50.820;4.884;2023-04-01T08:15:54;9.10;99.90
15906;DHT22;8051;50.820;4.884;2023-04-01T08:18:32;9.00;99.90
15906;DHT22;8051;50.820;4.884;2023-04-01T08:21:01;9.10;99.90
15906;DHT22;8051;50.820;4.884;2023-04-01T08:23:32;9.10;99.90
15906;DHT22;8051;50.820;4.884;2023-04-01T08:26:04;9.20;99.90
15906;DHT22;8051;50.820;4.884;2023-04-01T08:28:37;9.20;99.90
15906;DHT22;8051;50.820;4.884;2023-04-01T08:31:10;9.20;99.90
15906;DHT22;8051;50.820;4.884;2023-04-01T08:33:40;9.20;99.90
15906;DHT22;8051;50.820;4.884;2023-04-01T08:36:12;9.20;99.90
15906;DHT22;8051;50.820;4.884;2023-04-01T08:38:43;9.20;99.90
15906;DHT22;8051;50.820;4.884;2023-04-01T08:44:40;9.20;99.90
15906;DHT22;8051;50.820;4.884;2023-04-01T08:50:26;9.20;99.90
15906;DHT22;8051;50.820;4.884;2023-04-01T08:53:03;9.20;99.90
15906;DHT22;8051;50.820;4.884;2023-04-01T08:55:56;9.10;99.90
15906;DHT22;8051;50.820;4.884;2023-04-01T08:58:55;9.10;99.90
15906;DHT22;8051;50.820;4.884;2023-04-01T09:01:55;9.20;99.90
15906;DHT22;8051;50.820;4.884;2023-04-01T09:04:35;9.30;99.90
15906;DHT22;8051;50.820;4.884;2023-04-01T09:07:20;9.40;99.90
15906;DHT22;8051;50.820;4.884;2023-04-01T09:10:28;9.30;99.90
15906;DHT22;8051;50.820;4.884;2023-04-01T09:13:18;9.40;99.90
15906;DHT22;8051;50.820;4.884;2023-04-01T09:15:54;9.50;99.90
15906;DHT22;8051;50.820;4.884;2023-04-01T09:21:57;9.40;99.90
15906;DHT22;8051;50.820;4.884;2023-04-01T09:24:41;9.40;99.90
15906;DHT22;8051;50.820;4.884;2023-04-01T09:27:18;9.60;99.90
15906;DHT22;8051;50.820;4.884;2023-04-01T09:33:12;9.70;99.90
15906;DHT22;8051;50.820;4.884;2023-04-01T09:35:46;9.80;99.90
15906;DHT22;8051;50.820;4.884;2023-04-01T09:38:22;9.60;99.90
15906;DHT22;8051;50.820;4.884;2023-04-01T09:40:56;9.60;99.90
15906;DHT22;8051;50.820;4.884;2023-04-01T09:43:43;9.70;99.90
15906;DHT22;8051;50.820;4.884;2023-04-01T09:46:23;9.70;99.90
15906;DHT22;8051;50.820;4.884;2023-04-01T09:49:26;9.70;99.90
15906;DHT22;8051;50.820;4.884;2023-04-01T09:52:07;9.80;99.90
15906;DHT22;8051;50.820;4.884;2023-04-01T09:54:56;9.80;99.90
15906;DHT22;8051;50.820;4.884;2023-04-01T09:57:51;9.80;99.90
15906;DHT22;8051;50.820;4.884;2023-04-01T10:04:04;9.70;99.90
15906;DHT22;8051;50.820;4.884;2023-04-01T10:07:03;9.70;99.90
15906;DHT22;8051;50.820;4.884;2023-04-01T10:16:00;9.80;99.90
15906;DHT22;8051;50.820;4.884;2023-04-01T10:18:41;9.80;99.90
15906;DHT22;8051;50.820;4.884;2023-04-01T10:21:31;9.90;99.90
15906;DHT22;8051;50.820;4.884;2023-04-01T10:24:33;9.90;99.90
15906;DHT22;8051;50.820;4.884;2023-04-01T10:27:33;10.00;99.90
15906;DHT22;8051;50.820;4.884;2023-04-01T10:36:52;9.90;99.90
15906;DHT22;8051;50.820;4.884;2023-04-01T10:39:58;10.00;99.90
15906;DHT22;8051;50.820;4.884;2023-04-01T10:49:21;10.30;99.90
15906;DHT22;8051;50.820;4.884;2023-04-01T10:55:34;10.60;99.90
15906;DHT22;8051;50.820;4.884;2023-04-01T10:58:36;10.70;99.90
15906;DHT22;8051;50.820;4.884;2023-04-01T11:04:36;11.00;99.90
15906;DHT22;8051;50.820;4.884;2023-04-01T11:10:58;10.90;99.90
15906;DHT22;8051;50.820;4.884;2023-04-01T11:23:01;10.80;99.90
15906;DHT22;8051;50.820;4.884;2023-04-01T11:26:06;10.90;99.90
15906;DHT22;8051;50.820;4.884;2023-04-01T11:28:53;10.90;99.90
15906;DHT22;8051;50.820;4.884;2023-04-01T11:31:43;10.80;99.90
15906;DHT22;8051;50.820;4.884;2023-04-01T11:34:49;10.80;99.90
15906;DHT22;8051;50.820;4.884;2023-04-01T11:37:29;11.00;99.90
15906;DHT22;8051;50.820;4.884;2023-04-01T11:40:08;11.00;99.90
15906;DHT22;8051;50.820;4.884;2023-04-01T11:42:46;10.90;99.90
15906;DHT22;8051;50.820;4.884;2023-04-01T11:45:28;10.80;99.90
15906;DHT22;8051;50.820;4.884;2023-04-01T11:48:24;10.90;99.90
15906;DHT22;8051;50.820;4.884;2023-04-01T11:51:10;10.90;99.90
15906;DHT22;8051;50.820;4.884;2023-04-01T11:53:47;10.90;99.90
15906;DHT22;8051;50.820;4.884;2023-04-01T11:56:39;11.00;99.90
15906;DHT22;8051;50.820;4.884;2023-04-01T12:02:20;10.60;99.90
15906;DHT22;8051;50.820;4.884;2023-04-01T12:05:15;10.70;99.90
15906;DHT22;8051;50.820;4.884;2023-04-01T12:08:08;10.80;99.90
15906;DHT22;8051;50.820;4.884;2023-04-01T12:10:44;10.80;99.90
15906;DHT22;8051;50.820;4.884;2023-04-01T12:13:28;10.80;99.90
15906;DHT22;8051;50.820;4.884;2023-04-01T12:16:15;10.60;99.90
15906;DHT22;8051;50.820;4.884;2023-04-01T12:18:51;10.50;99.90
15906;DHT22;8051;50.820;4.884;2023-04-01T12:21:26;10.40;99.90
15906;DHT22;8051;50.820;4.884;2023-04-01T12:27:19;10.40;99.90
15906;DHT22;8051;50.820;4.884;2023-04-01T12:30:30;10.50;99.90
15906;DHT22;8051;50.820;4.884;2023-04-01T12:33:11;10.60;99.90
15906;DHT22;8051;50.820;4.884;2023-04-01T12:35:54;10.60;99.90
15906;DHT22;8051;50.820;4.884;2023-04-01T12:38:31;10.50;99.90
15906;DHT22;8051;50.820;4.884;2023-04-01T12:41:09;10.60;99.90
15906;DHT22;8051;50.820;4.884;2023-04-01T12:44:16;10.50;99.90
15906;DHT22;8051;50.820;4.884;2023-04-01T12:47:07;10.60;99.90
15906;DHT22;8051;50.820;4.884;2023-04-01T12:49:57;10.50;99.90
15906;DHT22;8051;50.820;4.884;2023-04-01T12:52:39;10.40;99.90
15906;DHT22;8051;50.820;4.884;2023-04-01T12:55:40;10.30;99.90
15906;DHT22;8051;50.820;4.884;2023-04-01T13:01:23;10.10;99.90
15906;DHT22;8051;50.820;4.884;2023-04-01T13:10:04;10.00;99.90
15906;DHT22;8051;50.820;4.884;2023-04-01T13:12:59;10.10;99.90
15906;DHT22;8051;50.820;4.884;2023-04-01T13:15:34;10.20;99.90
15906;DHT22;8051;50.820;4.884;2023-04-01T13:18:14;10.40;99.90
15906;DHT22;8051;50.820;4.884;2023-04-01T13:20:51;10.30;99.90
15906;DHT22;8051;50.820;4.884;2023-04-01T13:23:30;10.20;99.90
15906;DHT22;8051;50.820;4.884;2023-04-01T13:26:10;10.20;99.90
15906;DHT22;8051;50.820;4.884;2023-04-01T13:28:42;10.10;99.90
15906;DHT22;8051;50.820;4.884;2023-04-01T13:31:26;10.10;99.90
15906;DHT22;8051;50.820;4.884;2023-04-01T13:34:13;10.10;99.90
15906;DHT22;8051;50.820;4.884;2023-04-01T13:36:54;10.20;99.90
15906;DHT22;8051;50.820;4.884;2023-04-01T13:39:41;10.30;99.90
15906;DHT22;8051;50.820;4.884;2023-04-01T13:42:23;10.40;99.90
15906;DHT22;8051;50.820;4.884;2023-04-01T13:44:59;10.20;99.90
15906;DHT22;8051;50.820;4.884;2023-04-01T13:48:03;10.20;99.90
15906;DHT22;8051;50.820;4.884;2023-04-01T13:50:56;10.30;99.90
15906;DHT22;8051;50.820;4.884;2023-04-01T13:53:52;10.10;99.90
15906;DHT22;8051;50.820;4.884;2023-04-01T13:56:34;10.10;99.90
15906;DHT22;8051;50.820;4.884;2023-04-01T13:59:31;10.00;99.90
15906;DHT22;8051;50.820;4.884;2023-04-01T14:05:14;10.00;99.90
15906;DHT22;8051;50.820;4.884;2023-04-01T14:07:58;9.90;99.90
15906;DHT22;8051;50.820;4.884;2023-04-01T14:10:31;9.90;99.90
15906;DHT22;8051;50.820;4.884;2023-04-01T14:13:09;9.90;99.90
15906;DHT22;8051;50.820;4.884;2023-04-01T14:18:42;9.90;99.90
15906;DHT22;8051;50.820;4.884;2023-04-01T14:21:21;10.00;99.90
15906;DHT22;8051;50.820;4.884;2023-04-01T14:24:04;9.90;99.90
15906;DHT22;8051;50.820;4.884;2023-04-01T14:26:55;10.00;99.90
15906;DHT22;8051;50.820;4.884;2023-04-01T14:29:29;10.00;99.90
15906;DHT22;8051;50.820;4.884;2023-04-01T14:32:08;9.80;99.90
15906;DHT22;8051;50.820;4.884;2023-04-01T14:34:57;9.70;99.90
15906;DHT22;8051;50.820;4.884;2023-04-01T14:37:55;9.80;99.90
15906;DHT22;8051;50.820;4.884;2023-04-01T14:40:37;9.90;99.90
15906;DHT22;8051;50.820;4.884;2023-04-01T14:43:30;9.90;99.90
15906;DHT22;8051;50.820;4.884;2023-04-01T14:46:14;9.90;99.90
15906;DHT22;8051;50.820;4.884;2023-04-01T14:48:57;9.80;99.90
15906;DHT22;8051;50.820;4.884;2023-04-01T14:51:32;9.80;99.90
15906;DHT22;8051;50.820;4.884;2023-04-01T14:54:06;9.80;99.90
15906;DHT22;8051;50.820;4.884;2023-04-01T14:56:37;9.80;99.90
15906;DHT22;8051;50.820;4.884;2023-04-01T14:59:13;9.70;99.90
15906;DHT22;8051;50.820;4.884;2023-04-01T15:01:47;9.60;99.90
15906;DHT22;8051;50.820;4.884;2023-04-01T15:04:46;9.80;99.90
15906;DHT22;8051;50.820;4.884;2023-04-01T15:07:40;10.00;99.90
15906;DHT22;8051;50.820;4.884;2023-04-01T15:10:16;10.30;99.90
15906;DHT22;8051;50.820;4.884;2023-04-01T15:12:55;10.40;99.90
15906;DHT22;8051;50.820;4.884;2023-04-01T15:15:36;10.50;99.90
15906;DHT22;8051;50.820;4.884;2023-04-01T15:18:09;10.60;99.90
15906;DHT22;8051;50.820;4.884;2023-04-01T15:20:56;10.60;99.90
15906;DHT22;8051;50.820;4.884;2023-04-01T15:23:34;10.60;99.90
15906;DHT22;8051;50.820;4.884;2023-04-01T15:26:23;10.60;99.90
15906;DHT22;8051;50.820;4.884;2023-04-01T15:29:07;10.40;99.90
15906;DHT22;8051;50.820;4.884;2023-04-01T15:31:42;10.30;99.90
15906;DHT22;8051;50.820;4.884;2023-04-01T15:34:28;10.30;99.90
15906;DHT22;8051;50.820;4.884;2023-04-01T15:37:02;10.50;99.90
15906;DHT22;8051;50.820;4.884;2023-04-01T15:39:42;10.50;99.90
15906;DHT22;8051;50.820;4.884;2023-04-01T15:42:23;10.50;99.90
15906;DHT22;8051;50.820;4.884;2023-04-01T15:45:16;10.40;99.90
15906;DHT22;8051;50.820;4.884;2023-04-01T15:47:50;10.30;99.90
15906;DHT22;8051;50.820;4.884;2023-04-01T15:50:52;10.10;99.90
15906;DHT22;8051;50.820;4.884;2023-04-01T15:53:34;10.00;99.90
15906;DHT22;8051;50.820;4.884;2023-04-01T15:56:14;9.90;99.90
15906;DHT22;8051;50.820;4.884;2023-04-01T15:58:51;10.00;99.90
15906;DHT22;8051;50.820;4.884;2023-04-01T16:01:28;10.10;99.90
15906;DHT22;8051;50.820;4.884;2023-04-01T16:04:14;10.20;99.90
15906;DHT22;8051;50.820;4.884;2023-04-01T16:07:02;10.20;99.90
15906;DHT22;8051;50.820;4.884;2023-04-01T16:09:40;10.10;99.90
15906;DHT22;8051;50.820;4.884;2023-04-01T16:12:16;10.10;99.90
15906;DHT22;8051;50.820;4.884;2023-04-01T16:14:58;10.20;99.90
15906;DHT22;8051;50.820;4.884;2023-04-01T16:17:44;10.30;99.90
15906;DHT22;8051;50.820;4.884;2023-04-01T16:20:19;10.30;99.90
15906;DHT22;8051;50.820;4.884;2023-04-01T16:22:53;10.30;99.90
15906;DHT22;8051;50.820;4.884;2023-04-01T16:25:32;10.30;99.90
15906;DHT22;8051;50.820;4.884;2023-04-01T16:28:14;10.20;99.90
15906;DHT22;8051;50.820;4.884;2023-04-01T16:30:48;10.20;99.90
15906;DHT22;8051;50.820;4.884;2023-04-01T16:33:24;10.00;99.90
15906;DHT22;8051;50.820;4.884;2023-04-01T16:35:59;10.00;99.90
15906;DHT22;8051;50.820;4.884;2023-04-01T16:38:36;9.90;99.90
15906;DHT22;8051;50.820;4.884;2023-04-01T16:41:16;9.90;99.90
15906;DHT22;8051;50.820;4.884;2023-04-01T16:43:46;9.90;99.90
15906;DHT22;8051;50.820;4.884;2023-04-01T16:46:31;9.90;99.90
15906;DHT22;8051;50.820;4.884;2023-04-01T16:49:03;9.80;99.90
15906;DHT22;8051;50.820;4.884;2023-04-01T16:51:40;9.80;99.90
15906;DHT22;8051;50.820;4.884;2023-04-01T16:54:16;9.80;99.90
15906;DHT22;8051;50.820;4.884;2023-04-01T16:56:49;9.70;99.90
15906;DHT22;8051;50.820;4.884;2023-04-01T16:59:21;9.60;99.90
15906;DHT22;8051;50.820;4.884;2023-04-01T17:02:01;9.50;99.90
15906;DHT22;8051;50.820;4.884;2023-04-01T17:04:34;9.30;99.90
15906;DHT22;8051;50.820;4.884;2023-04-01T17:07:19;9.30;99.90
15906;DHT22;8051;50.820;4.884;2023-04-01T17:10:06;9.10;99.90
15906;DHT22;8051;50.820;4.884;2023-04-01T17:12:46;9.00;99.90
15906;DHT22;8051;50.820;4.884;2023-04-01T17:15:21;8.90;99.90
15906;DHT22;8051;50.820;4.884;2023-04-01T17:17:58;8.80;99.90
15906;DHT22;8051;50.820;4.884;2023-04-01T17:20:42;8.80;99.90
15906;DHT22;8051;50.820;4.884;2023-04-01T17:23:18;8.70;99.90
15906;DHT22;8051;50.820;4.884;2023-04-01T17:28:45;8.70;99.90
15906;DHT22;8051;50.820;4.884;2023-04-01T17:31:25;8.70;99.90
15906;DHT22;8051;50.820;4.884;2023-04-01T17:34:06;8.70;99.90
15906;DHT22;8051;50.820;4.884;2023-04-01T17:36:51;8.60;99.90
15906;DHT22;8051;50.820;4.884;2023-04-01T17:39:30;8.60;99.90
15906;DHT22;8051;50.820;4.884;2023-04-01T17:42:06;8.60;99.90
15906;DHT22;8051;50.820;4.884;2023-04-01T17:44:48;8.60;99.90
15906;DHT22;8051;50.820;4.884;2023-04-01T17:47:36;8.50;99.90
15906;DHT22;8051;50.820;4.884;2023-04-01T17:50:23;8.50;99.90
15906;DHT22;8051;50.820;4.884;2023-04-01T17:53:02;8.50;99.90
15906;DHT22;8051;50.820;4.884;2023-04-01T17:55:49;8.50;99.90
15906;DHT22;8051;50.820;4.884;2023-04-01T17:58:21;8.50;99.90
15906;DHT22;8051;50.820;4.884;2023-04-01T18:01:20;8.50;99.90
15906;DHT22;8051;50.820;4.884;2023-04-01T18:04:17;8.50;99.90
15906;DHT22;8051;50.820;4.884;2023-04-01T18:07:05;8.50;99.90
15906;DHT22;8051;50.820;4.884;2023-04-01T18:09:41;8.50;99.90
15906;DHT22;8051;50.820;4.884;2023-04-01T18:12:17;8.50;99.90
15906;DHT22;8051;50.820;4.884;2023-04-01T18:15:14;8.50;99.90
15906;DHT22;8051;50.820;4.884;2023-04-01T18:17:56;8.50;99.90
15906;DHT22;8051;50.820;4.884;2023-04-01T18:20:41;8.50;99.90
15906;DHT22;8051;50.820;4.884;2023-04-01T18:23:20;8.50;99.90
15906;DHT22;8051;50.820;4.884;2023-04-01T18:25:53;8.50;99.90